Terminal Aerodrome Forecast
Issued by NWS Quad Cities IA IL

Home | Current Version | Previous Version | Text Only | Print | Product List | Glossary On
Versions: 1 2 3 4 5 6 7 8 9 10 11 12 13 14 15 16 17 18 19 20 21 22
000
FTUS43 KDVN 240930 AAB
TAFMLI
TAF AMD
KMLI 240930Z 2410/2506 16010KT 5SM -SHRA BR VCTS BKN015CB OVC035
      TEMPO 2410/2411 2SM TSRA BR BKN020CB
     FM241300 18009KT 6SM HZ BKN012 OVC025
     FM241900 20007KT P6SM VCTS SCT025CB BKN035=

USA.gov is the U.S. government's official web portal to all federal, state and local government web resources and services.